createdAt,value
2023-03-05T00:00:25.754Z,0.70
2023-03-05T00:02:52.713Z,0.70
2023-03-05T00:05:19.806Z,0.70
2023-03-05T00:07:49.140Z,0.90
2023-03-05T00:10:16.392Z,0.70
2023-03-05T00:12:43.439Z,0.70
2023-03-05T00:15:10.593Z,0.80
2023-03-05T00:17:37.631Z,0.70
2023-03-05T00:20:05.756Z,0.80
2023-03-05T00:22:35.419Z,0.70
2023-03-05T00:25:03.902Z,0.80
2023-03-05T00:27:30.951Z,0.70
2023-03-05T00:29:57.888Z,0.80
2023-03-05T00:32:24.966Z,0.90
2023-03-05T00:34:51.927Z,0.70
2023-03-05T00:37:19.965Z,0.60
2023-03-05T00:39:47.365Z,0.80
2023-03-05T00:42:14.354Z,0.90
2023-03-05T00:44:41.283Z,0.80
2023-03-05T00:47:08.757Z,0.80
2023-03-05T00:49:35.755Z,0.80
2023-03-05T00:52:02.855Z,0.80
2023-03-05T00:54:29.823Z,0.80
2023-03-05T00:56:56.953Z,0.60
2023-03-05T00:59:24.124Z,0.80
2023-03-05T01:01:51.357Z,0.60
2023-03-05T01:04:18.754Z,0.70
2023-03-05T01:06:46.995Z,0.70
2023-03-05T01:09:14.011Z,0.60
2023-03-05T01:11:41.281Z,0.70
2023-03-05T01:14:09.539Z,0.80
2023-03-05T01:16:36.585Z,0.80
2023-03-05T01:19:03.945Z,0.60
2023-03-05T01:21:30.983Z,0.70
2023-03-05T01:23:58.863Z,0.70
2023-03-05T01:26:25.827Z,0.80
2023-03-05T01:28:53.140Z,0.80
2023-03-05T01:31:20.717Z,0.70
2023-03-05T01:33:47.748Z,0.80
2023-03-05T01:36:17.070Z,0.80
2023-03-05T01:38:46.896Z,0.70
2023-03-05T01:41:16.329Z,0.60
2023-03-05T01:43:44.335Z,1.00
2023-03-05T01:46:39.025Z,0.50
2023-03-05T01:49:28.251Z,0.70
2023-03-05T01:52:18.986Z,0.70
2023-03-05T01:55:25.978Z,0.80
2023-03-05T01:57:58.105Z,0.60
2023-03-05T02:00:32.290Z,0.80
2023-03-05T02:03:03.925Z,0.80
2023-03-05T02:05:33.478Z,0.70
2023-03-05T02:08:04.180Z,0.80
2023-03-05T02:10:36.092Z,0.70
2023-03-05T02:13:06.605Z,0.50
2023-03-05T02:15:34.618Z,0.60
2023-03-05T02:18:01.731Z,0.70
2023-03-05T02:20:32.194Z,0.60
2023-03-05T02:22:59.146Z,0.80
2023-03-05T02:25:28.458Z,0.60
2023-03-05T02:28:24.855Z,0.80
2023-03-05T02:30:52.439Z,0.60
2023-03-05T02:33:20.458Z,0.80
2023-03-05T02:35:48.391Z,1.00
2023-03-05T02:38:18.765Z,0.70
2023-03-05T02:40:45.750Z,0.70
2023-03-05T02:43:13.294Z,0.60
2023-03-05T02:45:40.451Z,0.90
2023-03-05T02:48:08.046Z,0.70
2023-03-05T02:50:36.358Z,0.60
2023-03-05T02:53:03.584Z,0.70
2023-03-05T02:55:33.669Z,0.80
2023-03-05T02:58:00.768Z,0.60
2023-03-05T03:00:28.358Z,0.70
2023-03-05T03:02:55.750Z,0.90
2023-03-05T03:05:22.952Z,0.60
2023-03-05T03:07:50.529Z,0.70
2023-03-05T03:10:17.748Z,0.70
2023-03-05T03:12:45.129Z,0.60
2023-03-05T03:15:15.511Z,0.70
2023-03-05T03:17:42.905Z,0.70
2023-03-05T03:20:14.181Z,0.70
2023-03-05T03:22:41.999Z,0.60
2023-03-05T03:25:09.591Z,0.70
2023-03-05T03:27:36.640Z,0.60
2023-03-05T03:30:05.061Z,0.70
2023-03-05T03:32:33.072Z,0.80
2023-03-05T03:35:00.670Z,0.80
2023-03-05T03:37:28.142Z,0.80
2023-03-05T03:39:55.199Z,0.70
2023-03-05T03:42:23.543Z,0.80
2023-03-05T03:44:51.265Z,0.70
2023-03-05T03:47:18.652Z,0.80
2023-03-05T03:49:45.564Z,0.70
2023-03-05T03:52:12.487Z,0.80
2023-03-05T03:54:39.497Z,1.00
2023-03-05T03:57:06.575Z,0.70
2023-03-05T03:59:33.768Z,0.80
2023-03-05T04:02:00.758Z,0.90
2023-03-05T04:04:29.367Z,0.60
2023-03-05T04:06:56.900Z,0.80
2023-03-05T04:09:23.820Z,0.90
2023-03-05T04:11:50.801Z,0.70
2023-03-05T04:14:17.820Z,0.70
2023-03-05T04:16:44.704Z,0.70
2023-03-05T04:19:11.611Z,0.80
2023-03-05T04:21:38.634Z,0.70
2023-03-05T04:24:06.047Z,0.80
2023-03-05T04:26:33.033Z,0.70
2023-03-05T04:28:59.954Z,0.70
2023-03-05T04:31:26.921Z,0.90
2023-03-05T04:33:53.986Z,0.70
2023-03-05T04:36:21.538Z,0.90
2023-03-05T04:38:48.495Z,0.80
2023-03-05T04:41:15.444Z,0.90
2023-03-05T04:43:42.400Z,0.70
2023-03-05T04:46:09.431Z,0.80
2023-03-05T04:48:36.361Z,0.70
2023-03-05T04:51:03.276Z,0.70
2023-03-05T04:53:30.368Z,0.80
2023-03-05T04:55:57.868Z,0.80
2023-03-05T04:58:25.145Z,0.80
2023-03-05T05:00:52.023Z,0.80
2023-03-05T05:03:19.004Z,0.90
2023-03-05T05:05:45.970Z,0.80
2023-03-05T05:08:13.013Z,0.80
2023-03-05T05:10:40.258Z,0.70
2023-03-05T05:13:07.409Z,0.80
2023-03-05T05:15:34.393Z,0.70
2023-03-05T05:18:01.290Z,1.00
2023-03-05T05:20:28.264Z,1.00
2023-03-05T05:22:55.229Z,0.80
2023-03-05T05:25:22.309Z,0.90
2023-03-05T05:27:49.325Z,0.80
2023-03-05T05:30:16.986Z,0.80
2023-03-05T05:32:43.933Z,1.00
2023-03-05T05:35:11.405Z,0.70
2023-03-05T05:37:38.707Z,1.00
2023-03-05T05:40:06.394Z,0.90
2023-03-05T05:42:33.344Z,0.90
2023-03-05T05:45:00.583Z,1.00
2023-03-05T05:47:27.954Z,0.90
2023-03-05T05:49:55.190Z,0.80
2023-03-05T05:52:22.638Z,0.90
2023-03-05T05:54:49.757Z,0.80
2023-03-05T05:57:16.742Z,0.80
2023-03-05T05:59:43.756Z,0.80
2023-03-05T06:02:11.429Z,0.90
2023-03-05T06:04:38.779Z,0.80
2023-03-05T06:07:07.004Z,1.20
2023-03-05T06:09:36.609Z,1.00
2023-03-05T06:12:04.005Z,1.00
2023-03-05T06:14:30.960Z,0.90
2023-03-05T06:16:57.992Z,0.90
2023-03-05T06:19:25.274Z,1.00
2023-03-05T06:21:52.263Z,1.00
2023-03-05T06:24:19.615Z,0.90
2023-03-05T06:26:48.701Z,1.00
2023-03-05T06:29:16.069Z,0.90
2023-03-05T06:31:43.011Z,0.90
2023-03-05T06:34:11.008Z,0.80
2023-03-05T06:36:40.695Z,0.90
2023-03-05T06:39:07.727Z,0.90
2023-03-05T06:41:34.829Z,0.70
2023-03-05T06:44:03.362Z,0.90
2023-03-05T06:46:32.784Z,0.90
2023-03-05T06:49:02.247Z,1.10
2023-03-05T06:51:31.915Z,1.60
2023-03-05T06:54:05.166Z,0.80
2023-03-05T06:56:32.449Z,1.00
2023-03-05T06:58:59.585Z,1.00
2023-03-05T07:01:26.534Z,1.00
2023-03-05T07:03:55.313Z,0.80
2023-03-05T07:06:22.905Z,0.70
2023-03-05T07:08:49.967Z,1.00
2023-03-05T07:11:20.512Z,0.90
2023-03-05T07:13:48.045Z,0.90
2023-03-05T07:16:19.445Z,1.00
2023-03-05T07:18:46.916Z,0.90
2023-03-05T07:21:37.421Z,1.00
2023-03-05T07:24:07.164Z,1.10
2023-03-05T07:26:34.595Z,1.10
2023-03-05T07:29:02.402Z,1.00
2023-03-05T07:31:32.210Z,1.10
2023-03-05T07:34:01.766Z,1.20
2023-03-05T07:36:29.156Z,0.90
2023-03-05T07:38:56.565Z,1.10
2023-03-05T07:41:24.086Z,0.90
2023-03-05T07:43:53.203Z,0.90
2023-03-05T07:46:23.723Z,0.90
2023-03-05T07:48:50.999Z,1.10
2023-03-05T07:51:20.261Z,1.00
2023-03-05T07:53:49.012Z,1.10
2023-03-05T07:56:31.983Z,1.00
2023-03-05T07:59:00.868Z,1.00
2023-03-05T08:01:30.009Z,0.90
2023-03-05T08:03:57.101Z,1.00
2023-03-05T08:06:24.167Z,0.90
2023-03-05T08:08:51.474Z,1.10
2023-03-05T08:11:18.799Z,1.50
2023-03-05T08:13:46.068Z,1.10
2023-03-05T08:16:16.754Z,1.20
2023-03-05T08:18:43.716Z,1.10
2023-03-05T08:21:22.771Z,1.30
2023-03-05T08:23:50.180Z,1.30
2023-03-05T08:26:20.600Z,1.40
2023-03-05T08:28:47.969Z,1.20
2023-03-05T08:31:17.526Z,1.20
2023-03-05T08:33:44.965Z,1.30
2023-03-05T08:36:11.897Z,1.10
2023-03-05T08:38:39.149Z,1.30
2023-03-05T08:41:06.530Z,1.30
2023-03-05T08:43:33.710Z,1.30
2023-03-05T08:46:01.422Z,1.30
2023-03-05T08:48:29.230Z,1.30
2023-03-05T08:50:56.846Z,1.00
2023-03-05T08:53:24.848Z,0.90
2023-03-05T08:55:56.283Z,1.30
2023-03-05T08:58:24.078Z,1.00
2023-03-05T09:00:51.380Z,1.30
2023-03-05T09:03:18.841Z,1.30
2023-03-05T09:05:46.008Z,1.10
2023-03-05T09:08:13.943Z,1.20
2023-03-05T09:10:44.386Z,1.30
2023-03-05T09:13:12.057Z,1.30
2023-03-05T09:15:39.137Z,1.20
2023-03-05T09:18:06.785Z,1.20
2023-03-05T09:20:34.216Z,1.10
2023-03-05T09:23:01.567Z,1.20
2023-03-05T09:25:28.631Z,1.10
2023-03-05T09:27:55.760Z,1.30
2023-03-05T09:30:22.901Z,1.10
2023-03-05T09:32:51.800Z,1.10
2023-03-05T09:35:18.904Z,1.20
2023-03-05T09:37:45.916Z,1.40
2023-03-05T09:40:18.756Z,1.30
2023-03-05T09:42:57.996Z,1.30
2023-03-05T09:45:33.184Z,1.30
2023-03-05T09:48:19.448Z,1.60
2023-03-05T09:50:55.046Z,1.80
2023-03-05T09:53:40.474Z,2.20
2023-03-05T09:56:40.009Z,2.00
2023-03-05T09:59:19.532Z,1.90
2023-03-05T10:01:48.992Z,1.30
2023-03-05T10:04:18.592Z,0.90
2023-03-05T10:07:12.119Z,1.30
2023-03-05T10:09:45.097Z,1.30
2023-03-05T10:12:42.797Z,1.90
2023-03-05T10:15:39.305Z,1.90
2023-03-05T10:18:41.528Z,1.80
2023-03-05T10:21:22.310Z,1.60
2023-03-05T10:24:05.060Z,1.40
2023-03-05T10:26:48.966Z,1.40
2023-03-05T10:29:30.736Z,1.30
2023-03-05T10:32:36.712Z,1.70
2023-03-05T10:35:17.713Z,1.90
2023-03-05T10:37:58.509Z,2.10
2023-03-05T10:40:36.282Z,2.00
2023-03-05T10:43:21.892Z,2.10
2023-03-05T10:45:52.498Z,1.50
2023-03-05T10:48:43.312Z,1.50
2023-03-05T10:51:21.983Z,1.50
2023-03-05T10:53:56.805Z,1.50
2023-03-05T10:56:29.353Z,1.60
2023-03-05T10:58:56.243Z,2.10
2023-03-05T11:01:28.274Z,1.40
2023-03-05T11:03:59.777Z,1.90
2023-03-05T11:06:28.084Z,2.10
2023-03-05T11:08:55.220Z,2.10
2023-03-05T11:11:23.955Z,2.40
2023-03-05T11:14:04.065Z,2.60
2023-03-05T11:16:47.430Z,2.30
2023-03-05T11:19:14.289Z,2.00
2023-03-05T11:21:42.387Z,2.10
2023-03-05T11:24:19.150Z,2.20
2023-03-05T11:26:51.917Z,2.10
2023-03-05T11:29:20.706Z,1.80
2023-03-05T11:31:47.765Z,1.90
2023-03-05T11:34:17.736Z,1.80
2023-03-05T11:36:53.576Z,1.90
2023-03-05T11:39:26.004Z,1.80
2023-03-05T11:41:54.080Z,1.70
2023-03-05T11:44:29.852Z,1.60
2023-03-05T11:47:02.659Z,1.60
2023-03-05T11:49:35.171Z,1.70
2023-03-05T11:52:09.448Z,1.70
2023-03-05T11:54:55.511Z,1.50
2023-03-05T11:57:30.201Z,1.60
2023-03-05T12:00:02.628Z,1.30
2023-03-05T12:02:31.764Z,1.50
2023-03-05T12:05:03.689Z,1.50
2023-03-05T12:07:43.264Z,1.80
2023-03-05T12:10:25.880Z,1.50
2023-03-05T12:12:59.363Z,1.30
2023-03-05T12:15:37.062Z,1.30
2023-03-05T12:18:12.895Z,1.40
2023-03-05T12:20:58.096Z,1.70
2023-03-05T12:23:28.181Z,1.30
2023-03-05T12:26:00.398Z,1.30
2023-03-05T12:28:42.012Z,1.40
2023-03-05T12:31:30.368Z,1.60
2023-03-05T12:33:58.168Z,1.60
2023-03-05T12:36:38.356Z,1.30
2023-03-05T12:39:44.003Z,1.90
2023-03-05T12:42:33.349Z,1.90
2023-03-05T12:45:20.010Z,1.60
2023-03-05T12:47:51.113Z,1.70
2023-03-05T12:50:29.820Z,2.10
2023-03-05T12:53:18.523Z,1.90
2023-03-05T12:55:48.012Z,2.10
2023-03-05T12:58:36.054Z,2.20
2023-03-05T13:01:12.113Z,2.00
2023-03-05T13:04:04.259Z,1.90
2023-03-05T13:06:34.469Z,2.00
2023-03-05T13:09:03.668Z,2.00
2023-03-05T13:11:34.610Z,2.40
2023-03-05T13:14:02.964Z,2.20
2023-03-05T13:16:37.341Z,1.80
2023-03-05T13:19:04.714Z,1.90
2023-03-05T13:21:33.661Z,2.00
2023-03-05T13:24:03.209Z,2.00
2023-03-05T13:26:37.798Z,1.60
2023-03-05T13:29:10.561Z,1.60
2023-03-05T13:31:43.270Z,1.70
2023-03-05T13:34:21.175Z,1.90
2023-03-05T13:37:17.002Z,1.40
2023-03-05T13:39:56.051Z,1.60
2023-03-05T13:42:32.993Z,1.60
2023-03-05T13:45:02.722Z,1.60
2023-03-05T13:47:32.409Z,1.50
2023-03-05T13:50:01.649Z,1.60
2023-03-05T13:52:31.810Z,1.70
2023-03-05T13:55:00.280Z,1.40
2023-03-05T13:57:42.383Z,1.50
2023-03-05T14:00:28.104Z,1.60
2023-03-05T14:02:59.587Z,1.50
2023-03-05T14:05:27.611Z,1.50
2023-03-05T14:07:56.875Z,1.30
2023-03-05T14:10:39.647Z,1.50
2023-03-05T14:13:30.056Z,1.50
2023-03-05T14:16:25.502Z,1.50
2023-03-05T14:18:55.927Z,1.40
2023-03-05T14:21:23.489Z,1.20
2023-03-05T14:23:55.065Z,1.40
2023-03-05T14:26:30.585Z,1.50
2023-03-05T14:29:11.692Z,1.40
2023-03-05T14:31:54.076Z,1.40
2023-03-05T14:34:22.409Z,1.30
2023-03-05T14:36:50.943Z,1.40
2023-03-05T14:39:46.420Z,1.30
2023-03-05T14:42:31.483Z,1.30
2023-03-05T14:45:01.502Z,1.10
2023-03-05T14:47:30.382Z,1.30
2023-03-05T14:49:57.309Z,1.40
2023-03-05T14:52:25.940Z,1.30
2023-03-05T14:54:54.462Z,1.30
2023-03-05T14:57:30.022Z,1.30
2023-03-05T14:59:56.891Z,1.30
2023-03-05T15:02:26.221Z,1.30
2023-03-05T15:04:53.253Z,1.50
2023-03-05T15:07:29.115Z,1.40
2023-03-05T15:09:56.705Z,1.80
2023-03-05T15:12:24.724Z,1.40
2023-03-05T15:14:56.144Z,1.30
2023-03-05T15:17:39.039Z,1.50
2023-03-05T15:20:10.273Z,1.20
2023-03-05T15:22:37.716Z,1.30
2023-03-05T15:25:05.226Z,1.30
2023-03-05T15:27:32.322Z,1.40
2023-03-05T15:29:59.832Z,1.40
2023-03-05T15:32:30.880Z,1.60
2023-03-05T15:34:59.084Z,1.60
2023-03-05T15:37:26.404Z,1.70
2023-03-05T15:39:53.601Z,1.50
2023-03-05T15:42:20.609Z,1.40
2023-03-05T15:44:47.537Z,1.40
2023-03-05T15:47:14.478Z,1.40
2023-03-05T15:49:41.408Z,1.50
2023-03-05T15:52:08.388Z,1.60
2023-03-05T15:54:36.897Z,1.40
2023-03-05T15:57:10.358Z,1.30
2023-03-05T15:59:37.555Z,1.50
2023-03-05T16:02:05.583Z,1.40
2023-03-05T16:04:33.024Z,1.30
2023-03-05T16:07:03.173Z,1.30
2023-03-05T16:09:34.581Z,1.30
2023-03-05T16:12:03.473Z,1.10
2023-03-05T16:14:32.252Z,1.40
2023-03-05T16:17:01.326Z,1.30
2023-03-05T16:19:30.892Z,1.70
2023-03-05T16:21:57.718Z,1.40
2023-03-05T16:24:24.957Z,1.90
2023-03-05T16:26:51.995Z,1.60
2023-03-05T16:29:19.259Z,1.30
2023-03-05T16:31:47.762Z,1.20
2023-03-05T16:34:16.289Z,1.40
2023-03-05T16:36:48.768Z,1.30
2023-03-05T16:39:15.715Z,1.40
2023-03-05T16:41:42.617Z,1.50
2023-03-05T16:44:09.588Z,1.50
2023-03-05T16:46:36.777Z,1.70
2023-03-05T16:49:05.099Z,1.50
2023-03-05T16:51:32.206Z,1.50
2023-03-05T16:53:59.308Z,1.60
2023-03-05T16:56:26.289Z,1.50
2023-03-05T16:58:55.635Z,1.50
2023-03-05T17:01:23.891Z,1.60
2023-03-05T17:03:52.610Z,1.20
2023-03-05T17:06:25.812Z,2.00
2023-03-05T17:08:53.372Z,1.40
2023-03-05T17:11:21.262Z,1.90
2023-03-05T17:13:49.157Z,1.50
2023-03-05T17:16:18.752Z,1.40
2023-03-05T17:18:45.813Z,1.60
2023-03-05T17:21:13.204Z,1.70
2023-03-05T17:23:41.470Z,1.40
2023-03-05T17:26:12.658Z,1.60
2023-03-05T17:28:40.306Z,1.90
2023-03-05T17:31:07.707Z,1.50
2023-03-05T17:33:37.647Z,2.00
2023-03-05T17:36:05.602Z,2.20
2023-03-05T17:38:32.939Z,1.80
2023-03-05T17:40:59.982Z,2.10
2023-03-05T17:43:26.950Z,1.90
2023-03-05T17:45:54.289Z,1.90
2023-03-05T17:48:21.646Z,1.90
2023-03-05T17:50:48.687Z,1.80
2023-03-05T17:53:15.765Z,1.90
2023-03-05T17:55:42.864Z,2.10
2023-03-05T17:58:10.393Z,1.60
2023-03-05T18:00:37.644Z,1.90
2023-03-05T18:03:05.537Z,2.20
2023-03-05T18:05:32.881Z,1.70
2023-03-05T18:08:00.918Z,1.70
2023-03-05T18:10:28.346Z,1.60
2023-03-05T18:12:56.397Z,1.70
2023-03-05T18:15:26.017Z,1.60
2023-03-05T18:17:53.219Z,1.60
2023-03-05T18:20:32.706Z,1.50
2023-03-05T18:23:03.787Z,1.70
2023-03-05T18:25:31.764Z,1.70
2023-03-05T18:28:04.170Z,1.50
2023-03-05T18:30:31.681Z,1.80
2023-03-05T18:32:59.102Z,1.50
2023-03-05T18:35:27.317Z,2.20
2023-03-05T18:37:54.248Z,1.70
2023-03-05T18:40:24.946Z,1.90
2023-03-05T18:42:51.975Z,1.90
2023-03-05T18:45:21.798Z,1.60
2023-03-05T18:47:54.460Z,1.70
2023-03-05T18:50:23.945Z,2.00
2023-03-05T18:52:51.244Z,2.10
2023-03-05T18:55:21.723Z,1.70
2023-03-05T18:57:49.534Z,2.10
2023-03-05T19:00:21.246Z,1.70
2023-03-05T19:02:48.678Z,1.90
2023-03-05T19:05:17.131Z,1.70
2023-03-05T19:07:44.714Z,1.90
2023-03-05T19:10:13.974Z,2.00
2023-03-05T19:13:49.167Z,2.00
2023-03-05T19:16:23.791Z,2.00
2023-03-05T19:19:25.588Z,1.80
2023-03-05T19:21:59.029Z,2.00
2023-03-05T19:24:30.919Z,1.80
2023-03-05T19:27:01.105Z,2.00
2023-03-05T19:29:34.442Z,1.90
2023-03-05T19:32:01.507Z,1.80
2023-03-05T19:34:28.417Z,2.00
2023-03-05T19:36:55.476Z,2.30
2023-03-05T19:39:22.458Z,2.40
2023-03-05T19:41:49.847Z,2.20
2023-03-05T19:44:17.522Z,2.10
2023-03-05T19:46:44.590Z,2.30
2023-03-05T19:49:11.645Z,2.70
2023-03-05T19:51:40.609Z,2.50
2023-03-05T19:54:07.708Z,2.80
2023-03-05T19:56:37.963Z,2.80
2023-03-05T19:59:05.031Z,3.30
2023-03-05T20:01:32.692Z,3.20
2023-03-05T20:04:02.018Z,3.50
2023-03-05T20:06:30.998Z,3.70
2023-03-05T20:08:59.493Z,3.30
2023-03-05T20:11:27.041Z,3.40
2023-03-05T20:13:55.459Z,3.90
2023-03-05T20:16:27.258Z,4.50
2023-03-05T20:18:55.528Z,4.60
2023-03-05T20:21:25.112Z,4.70
2023-03-05T20:23:55.027Z,4.80
2023-03-05T20:26:23.331Z,4.70
2023-03-05T20:28:50.485Z,5.10
2023-03-05T20:31:23.282Z,5.50
2023-03-05T20:33:50.423Z,4.80
2023-03-05T20:36:18.036Z,5.00
2023-03-05T20:38:45.945Z,5.10
2023-03-05T20:41:16.683Z,4.80
2023-03-05T20:43:46.720Z,5.30
2023-03-05T20:46:28.404Z,5.00
2023-03-05T20:48:59.553Z,4.90
2023-03-05T20:51:36.096Z,5.60
2023-03-05T20:54:06.409Z,5.30
2023-03-05T20:56:35.125Z,5.30
2023-03-05T20:59:05.083Z,5.20
2023-03-05T21:01:35.171Z,5.20
2023-03-05T21:04:04.114Z,5.30
2023-03-05T21:06:32.882Z,5.10
2023-03-05T21:09:00.295Z,4.90
2023-03-05T21:11:27.653Z,5.30
2023-03-05T21:13:54.736Z,5.60
2023-03-05T21:16:24.333Z,5.80
2023-03-05T21:18:52.658Z,5.60
2023-03-05T21:21:20.009Z,6.10
2023-03-05T21:23:47.509Z,5.40
2023-03-05T21:26:15.262Z,5.20
2023-03-05T21:28:42.337Z,5.30
2023-03-05T21:31:15.326Z,5.30
2023-03-05T21:33:42.437Z,4.90
2023-03-05T21:36:10.599Z,5.10
2023-03-05T21:38:37.546Z,5.30
2023-03-05T21:41:06.474Z,5.20
2023-03-05T21:43:33.881Z,5.10
2023-03-05T21:46:03.304Z,4.80
2023-03-05T21:48:30.995Z,4.60
2023-03-05T21:50:59.042Z,5.20
2023-03-05T21:53:26.622Z,4.80
2023-03-05T21:56:31.314Z,4.80
2023-03-05T21:58:58.340Z,4.80
2023-03-05T22:01:25.415Z,4.10
2023-03-05T22:03:52.538Z,4.00
2023-03-05T22:06:20.192Z,4.20
2023-03-05T22:08:47.612Z,4.00
2023-03-05T22:11:17.810Z,4.00
2023-03-05T22:13:44.754Z,3.80
2023-03-05T22:16:14.537Z,3.70
2023-03-05T22:18:41.440Z,3.50
2023-03-05T22:21:18.258Z,3.70
2023-03-05T22:23:46.286Z,3.90
2023-03-05T22:26:13.385Z,3.50
2023-03-05T22:28:40.454Z,3.40
2023-03-05T22:31:07.450Z,3.60
2023-03-05T22:33:34.452Z,3.50
2023-03-05T22:36:08.109Z,3.60
2023-03-05T22:38:35.172Z,3.20
2023-03-05T22:41:02.299Z,3.30
2023-03-05T22:43:29.195Z,3.30
2023-03-05T22:45:56.160Z,3.30
2023-03-05T22:48:23.115Z,3.00
2023-03-05T22:50:56.434Z,3.00
2023-03-05T22:53:23.349Z,3.00
2023-03-05T22:55:50.691Z,2.90
2023-03-05T22:58:17.625Z,3.00
2023-03-05T23:00:44.656Z,2.80
2023-03-05T23:03:11.632Z,2.60
2023-03-05T23:05:39.496Z,2.70
2023-03-05T23:08:06.753Z,2.90
2023-03-05T23:10:34.167Z,2.90
2023-03-05T23:13:01.749Z,3.00
2023-03-05T23:15:35.522Z,2.90
2023-03-05T23:18:04.137Z,2.40
2023-03-05T23:20:35.706Z,2.60
2023-03-05T23:23:04.340Z,2.80
2023-03-05T23:25:35.118Z,2.70
2023-03-05T23:28:02.860Z,2.70
2023-03-05T23:30:37.330Z,2.40
2023-03-05T23:33:04.375Z,2.20
2023-03-05T23:35:32.625Z,2.30
2023-03-05T23:38:01.978Z,2.20
2023-03-05T23:40:32.965Z,2.30
2023-03-05T23:43:00.067Z,2.30
2023-03-05T23:45:28.447Z,2.40
2023-03-05T23:47:56.517Z,2.50
2023-03-05T23:50:27.160Z,3.00
2023-03-05T23:52:54.600Z,2.60
2023-03-05T23:55:25.300Z,2.40
2023-03-05T23:57:52.786Z,2.20
